Time;durP1;ratioP1;P1;durP2;ratioP2;P2;SDS_P1;SDS_P2;PMS_P1;PMS_P2;Temp;Humidity;BMP_temperature;BMP_pressure;BME280_temperature;BME280_humidity;BME280_pressure;Samples;Min_cycle;Max_cycle;Signal;HPM_P1;HPM_P2
2022/02/11 00:07:55;;;;;;;7.00;3.08;;;;;;;3.01;100.00;102066.28;5072068;28;20495;-54
2022/02/11 00:10:24;;;;;;;;;;;;;;;2.92;100.00;102064.69;5072575;28;20063;-55
2022/02/11 00:12:53;;;;;;;10.77;3.08;;;;;;;2.88;100.00;102070.81;5072464;28;19920;-56
2022/02/11 00:15:37;;;;;;;12.75;3.30;;;;;;;2.86;100.00;102077.75;5071799;28;20056;-54
2022/02/11 00:18:05;;;;;;;9.23;2.92;;;;;;;2.89;100.00;102064.75;5068192;28;20071;-48
2022/02/11 00:20:34;;;;;;;13.30;3.08;;;;;;;2.91;100.00;102070.75;5070469;28;20094;-44
2022/02/11 00:23:03;;;;;;;7.20;2.60;;;;;;;2.88;100.00;102063.84;5072142;28;20041;-47
2022/02/11 00:25:32;;;;;;;10.85;2.50;;;;;;;2.85;100.00;102066.50;5072149;28;20052;-46
2022/02/11 00:33:33;;;;;;;9.80;2.40;;;;;;;2.73;100.00;102056.28;5072087;28;20455;-55
2022/02/11 00:36:04;;;;;;;9.13;2.90;;;;;;;2.81;100.00;102059.63;5072188;28;20045;-55
2022/02/11 00:38:44;;;;;;;14.95;2.55;;;;;;;2.74;100.00;102058.00;5072160;28;20053;-47
2022/02/11 01:03:45;;;;;;;9.35;2.15;;;;;;;2.69;100.00;102054.59;5072564;28;20139;-50
2022/02/11 01:06:15;;;;;;;10.55;2.00;;;;;;;2.70;100.00;102056.31;5073730;28;20106;-55
2022/02/11 01:08:43;;;;;;;7.05;2.78;;;;;;;2.72;100.00;102053.69;5076106;28;20052;-55
2022/02/11 01:11:18;;;;;;;10.23;2.83;;;;;;;2.70;100.00;102048.53;5075821;28;20060;-53
2022/02/11 01:13:46;;;;;;;8.77;2.13;;;;;;;2.69;100.00;102041.59;5072040;28;20048;-55
2022/02/11 01:16:19;;;;;;;7.97;2.75;;;;;;;2.70;100.00;102038.97;5073225;28;20439;-54
2022/02/11 01:18:59;;;;;;;8.43;2.08;;;;;;;2.72;100.00;102038.13;5075680;28;20059;-55
2022/02/11 01:21:36;;;;;;;8.10;2.63;;;;;;;2.69;100.00;102039.00;5075553;28;20499;-54
2022/02/11 01:24:15;;;;;;;11.48;2.33;;;;;;;2.70;100.00;102030.34;5075608;28;20415;-55
2022/02/11 01:26:52;;;;;;;9.70;2.15;;;;;;;2.70;100.00;102027.75;5074496;28;20510;-44
2022/02/11 01:32:27;;;;;;;11.60;2.45;;;;;;;2.66;100.00;102028.66;5050318;28;20087;-46
2022/02/11 01:35:00;;;;;;;12.10;2.33;;;;;;;2.63;100.00;102023.50;5075468;28;20066;-46
2022/02/11 01:37:36;;;;;;;10.30;2.20;;;;;;;2.62;100.00;102021.75;5072969;28;20051;-46
2022/02/11 01:51:37;;;;;;;8.82;2.00;;;;;;;2.64;100.00;102020.03;5075483;28;20045;-46
2022/02/11 01:54:12;;;;;;;9.63;2.55;;;;;;;2.61;100.00;102014.88;5072454;28;20048;-53
2022/02/11 01:56:56;;;;;;;7.45;1.88;;;;;;;2.58;100.00;102010.56;5071551;28;20182;-55
2022/02/11 02:11:17;;;;;;;7.35;2.15;;;;;;;2.63;100.00;102026.09;5070639;28;20057;-49
2022/02/11 02:14:00;;;;;;;9.50;1.75;;;;;;;2.71;100.00;102029.44;5074871;28;20051;-55
2022/02/11 02:22:25;;;;;;;10.48;2.42;;;;;;;2.78;100.00;102035.41;5071523;28;20052;-53
2022/02/11 02:25:02;;;;;;;12.48;2.20;;;;;;;2.80;100.00;102034.53;5071213;28;20048;-53
2022/02/11 02:27:43;;;;;;;15.32;2.35;;;;;;;2.74;100.00;102037.22;5074344;28;20049;-52
2022/02/11 02:33:43;;;;;;;9.93;2.08;;;;;;;2.79;100.00;102035.41;5073098;28;20040;-46
2022/02/11 02:50:19;;;;;;;11.20;2.72;;;;;;;2.82;100.00;102040.56;5072759;28;20056;-53
2022/02/11 02:58:28;;;;;;;7.32;2.08;;;;;;;2.90;100.00;102021.41;5073849;28;20056;-49
2022/02/11 03:15:34;;;;;;;8.82;2.40;;;;;;;3.01;100.00;102009.09;5016388;28;20444;-49
2022/02/11 03:34:51;;;;;;;9.07;2.88;;;;;;;3.07;100.00;102014.22;5072967;28;20060;-47
2022/02/11 03:54:59;;;;;;;15.77;2.25;;;;;;;3.29;100.00;102038.16;5061186;28;20057;-47
2022/02/11 03:57:51;;;;;;;12.18;1.83;;;;;;;3.33;100.00;102036.38;5072608;28;20041;-48
2022/02/11 04:56:03;;;;;;;14.52;1.98;;;;;;;3.65;100.00;102136.44;5073156;28;20056;-54
2022/02/11 05:01:18;;;;;;;6.88;1.75;;;;;;;3.67;100.00;102139.91;5072113;28;20055;-56
2022/02/11 05:03:46;;;;;;;15.77;1.80;;;;;;;3.65;100.00;102141.66;5072007;28;20094;-43
2022/02/11 05:06:14;;;;;;;11.70;2.00;;;;;;;3.61;100.00;102153.81;5072066;28;20395;-44
2022/02/11 05:08:44;;;;;;;11.00;1.65;;;;;;;3.65;100.00;102155.50;5071898;28;20059;-46
2022/02/11 05:11:14;;;;;;;11.95;1.63;;;;;;;3.64;100.00;102161.59;5071779;28;20110;-45
2022/02/11 05:13:42;;;;;;;10.05;1.33;;;;;;;3.66;100.00;102178.03;5086700;28;20056;-55
2022/02/11 05:16:10;;;;;;;10.48;1.35;;;;;;;3.66;100.00;102182.41;5074629;28;20075;-54
2022/02/11 05:18:38;;;;;;;8.48;1.50;;;;;;;3.65;100.00;102178.06;5071894;28;20399;-55
2022/02/11 05:21:06;;;;;;;15.18;1.77;;;;;;;3.67;100.00;102189.34;5071770;28;20399;-55
2022/02/11 05:23:35;;;;;;;10.70;1.38;;;;;;;3.64;100.00;102198.03;5070380;28;20076;-55
2022/02/11 05:26:03;;;;;;;11.55;1.85;;;;;;;3.66;100.00;102205.81;5064697;28;20045;-44
2022/02/11 05:28:32;;;;;;;11.88;2.60;;;;;;;3.70;100.00;102210.09;5051343;28;20483;-45
2022/02/11 05:31:00;;;;;;;12.95;1.52;;;;;;;3.64;100.00;102212.78;5051258;28;20048;-49
2022/02/11 05:33:29;;;;;;;10.13;1.65;;;;;;;3.64;100.00;102211.06;5051538;28;20144;-48
2022/02/11 05:35:58;;;;;;;8.48;1.38;;;;;;;3.67;100.00;102221.41;5052589;28;20545;-48
2022/02/11 05:38:27;;;;;;;7.90;1.65;;;;;;;3.62;100.00;102225.81;5055546;28;20049;-49
2022/02/11 05:40:55;;;;;;;9.45;1.40;;;;;;;3.64;100.00;102230.97;5055321;28;20052;-53
2022/02/11 05:43:23;;;;;;;7.88;1.63;;;;;;;3.63;100.00;102243.16;5055469;28;20163;-47
2022/02/11 05:45:52;;;;;;;7.38;1.30;;;;;;;3.60;100.00;102244.91;5055372;28;20060;-48
2022/02/11 05:48:20;;;;;;;11.15;1.60;;;;;;;3.60;100.00;102239.72;5059682;28;20052;-52
2022/02/11 05:50:48;;;;;;;8.90;1.30;;;;;;;3.62;100.00;102253.56;5075081;28;20075;-56
2022/02/11 05:53:17;;;;;;;11.35;1.63;;;;;;;3.66;100.00;102247.44;5075169;28;20037;-47
2022/02/11 05:55:45;;;;;;;13.43;2.25;;;;;;;3.55;100.00;102251.03;5071277;28;20044;-47
2022/02/11 05:58:13;;;;;;;10.52;1.65;;;;;;;3.57;100.00;102255.38;5055345;28;20068;-56
2022/02/11 06:00:41;;;;;;;14.45;1.90;;;;;;;3.54;100.00;102261.47;5061794;28;20048;-46
2022/02/11 06:03:10;;;;;;;7.53;1.60;;;;;;;3.52;100.00;102265.84;5074668;28;20422;-45
2022/02/11 06:05:38;;;;;;;17.38;2.40;;;;;;;3.50;100.00;102271.03;5070383;28;20052;-47
2022/02/11 06:08:06;;;;;;;11.27;1.88;;;;;;;3.51;100.00;102275.38;5057755;28;20118;-46
2022/02/11 06:10:34;;;;;;;16.90;2.38;;;;;;;3.50;100.00;102278.84;5074228;28;20052;-45
2022/02/11 06:13:02;;;;;;;9.95;2.15;;;;;;;3.53;100.00;102276.22;5074651;28;20445;-46
2022/02/11 06:15:30;;;;;;;17.98;2.30;;;;;;;3.52;100.00;102290.13;5074990;28;20052;-45
2022/02/11 06:17:59;;;;;;;10.52;1.60;;;;;;;3.52;100.00;102294.47;5074111;28;20063;-55
2022/02/11 06:20:28;;;;;;;10.30;2.15;;;;;;;3.50;100.00;102306.63;5061385;28;20041;-44
2022/02/11 06:22:57;;;;;;;12.38;1.80;;;;;;;3.52;100.00;102308.31;5071591;28;20045;-52
2022/02/11 06:25:26;;;;;;;12.20;1.60;;;;;;;3.44;100.00;102320.56;5054722;28;20056;-54
2022/02/11 06:27:54;;;;;;;14.52;1.90;;;;;;;3.40;100.00;102324.06;5054564;28;20076;-53
2022/02/11 06:30:22;;;;;;;13.95;2.10;;;;;;;3.37;100.00;102318.91;5054227;28;20430;-53
2022/02/11 06:32:50;;;;;;;7.82;1.52;;;;;;;3.33;100.00;102338.03;5067460;28;20052;-54
2022/02/11 06:35:18;;;;;;;13.27;1.75;;;;;;;3.34;100.00;102342.34;5072681;28;20442;-53
2022/02/11 06:37:50;;;;;;;11.50;1.70;;;;;;;3.31;100.00;102342.38;5074407;28;20080;-46
2022/02/11 06:40:18;;;;;;;13.30;2.00;;;;;;;3.30;100.00;102345.84;5073962;28;20045;-55
2022/02/11 06:42:46;;;;;;;5.68;1.20;;;;;;;3.23;100.00;102358.06;5074044;28;20060;-46
2022/02/11 06:45:14;;;;;;;8.90;1.70;;;;;;;3.16;100.00;102372.00;5063192;28;20487;-46
2022/02/11 06:47:43;;;;;;;10.95;1.52;;;;;;;3.13;100.00;102364.25;5054021;28;20053;-44
2022/02/11 06:50:11;;;;;;;15.05;1.50;;;;;;;3.06;100.00;102380.78;5053806;28;20072;-44
2022/02/11 06:52:39;;;;;;;10.13;1.63;;;;;;;3.07;100.00;102382.47;5054215;28;20090;-45
2022/02/11 06:55:10;;;;;;;12.65;1.58;;;;;;;3.04;100.00;102394.66;5054878;28;20545;-48
2022/02/11 06:57:38;;;;;;;12.65;2.13;;;;;;;3.02;100.00;102387.72;5053937;28;20720;-55
2022/02/11 07:00:08;;;;;;;12.25;2.25;;;;;;;3.02;100.00;102405.94;5066166;28;20098;-53
2022/02/11 07:02:37;;;;;;;14.10;2.67;;;;;;;3.04;100.00;102411.97;5072232;28;20533;-52
2022/02/11 07:05:06;;;;;;;16.90;2.47;;;;;;;3.03;100.00;102415.47;5072475;28;20048;-53
2022/02/11 07:07:34;;;;;;;13.98;2.83;;;;;;;2.98;100.00;102431.06;5073647;28;20048;-54
2022/02/11 07:10:02;;;;;;;8.60;1.63;;;;;;;2.96;100.00;102432.84;5073571;28;20048;-57
2022/02/11 07:12:32;;;;;;;13.00;2.30;;;;;;;2.93;100.00;102437.19;5073718;28;20048;-45
2022/02/11 07:15:00;;;;;;;10.15;2.03;;;;;;;2.91;100.00;102449.34;5073588;28;20457;-44
2022/02/11 07:17:28;;;;;;;13.88;1.77;;;;;;;2.90;100.00;102450.22;5073625;28;20086;-46
2022/02/11 07:19:56;;;;;;;12.88;1.55;;;;;;;2.86;100.00;102463.25;5073101;28;20051;-44
2022/02/11 07:22:24;;;;;;;16.55;2.17;;;;;;;2.87;100.00;102467.53;5073342;28;20045;-46
2022/02/11 07:24:53;;;;;;;15.77;2.13;;;;;;;2.88;100.00;102478.81;5073205;28;20056;-46
2022/02/11 07:27:21;;;;;;;17.85;3.00;;;;;;;2.88;100.00;102479.66;5073246;28;20048;-45
2022/02/11 07:29:50;;;;;;;16.33;2.38;;;;;;;2.91;100.00;102486.59;5073531;28;20422;-48
2022/02/11 07:32:19;;;;;;;16.45;3.15;;;;;;;2.95;100.00;102487.44;5073378;28;20048;-46
2022/02/11 07:34:47;;;;;;;9.23;1.98;;;;;;;3.01;100.00;102501.25;5071666;28;20352;-44
2022/02/11 07:37:15;;;;;;;12.95;1.77;;;;;;;2.99;100.00;102507.34;5072992;28;20066;-44
2022/02/11 07:39:50;;;;;;;9.15;1.80;;;;;;;2.99;100.00;102516.00;5073000;28;20128;-47
2022/02/11 07:42:18;;;;;;;14.13;2.35;;;;;;;3.01;100.00;102518.56;5073060;28;20063;-46
2022/02/11 07:44:48;;;;;;;14.18;1.83;;;;;;;3.04;100.00;102528.94;5072917;28;20045;-53
2022/02/11 07:47:18;;;;;;;17.42;2.55;;;;;;;3.10;100.00;102543.66;5072896;28;20071;-45
2022/02/11 07:49:46;;;;;;;15.88;2.08;;;;;;;3.13;100.00;102544.50;5072661;28;20060;-44
2022/02/11 07:52:14;;;;;;;11.32;2.05;;;;;;;3.12;100.00;102552.31;5072746;28;20059;-44
2022/02/11 07:54:44;;;;;;;10.05;2.55;;;;;;;3.21;100.00;102552.25;5072713;28;20377;-44
2022/02/11 07:57:13;;;;;;;13.82;1.77;;;;;;;3.21;100.00;102560.03;5072630;28;20037;-52
2022/02/11 07:59:44;;;;;;;12.38;2.00;;;;;;;3.30;100.00;102559.09;5072146;28;20087;-52
2022/02/11 08:02:12;;;;;;;12.30;2.22;;;;;;;3.36;100.00;102567.72;5073081;28;20056;-53
2022/02/11 08:04:42;;;;;;;10.52;2.38;;;;;;;3.42;100.00;102577.22;5072541;28;20044;-46
2022/02/11 08:07:10;;;;;;;13.40;3.70;;;;;;;3.40;100.00;102580.72;5072630;28;20048;-43
2022/02/11 08:09:38;;;;;;;12.85;2.22;;;;;;;3.45;100.00;102592.81;5072540;28;20045;-48
2022/02/11 08:12:07;;;;;;;17.55;1.92;;;;;;;3.52;100.00;102604.06;5071286;28;20048;-44
2022/02/11 08:14:35;;;;;;;15.93;2.42;;;;;;;3.61;100.00;102613.50;5072377;28;20064;-43
2022/02/11 08:17:03;;;;;;;17.95;2.58;;;;;;;3.68;100.00;102626.47;5072638;28;20056;-43
2022/02/11 08:19:31;;;;;;;17.77;2.45;;;;;;;3.74;100.00;102630.75;5072546;28;20063;-44
2022/02/11 08:22:01;;;;;;;14.00;2.47;;;;;;;3.81;100.00;102627.22;5072459;28;20048;-56
2022/02/11 08:24:29;;;;;;;12.20;2.28;;;;;;;3.92;100.00;102631.50;5072414;28;20492;-45
2022/02/11 08:26:58;;;;;;;11.38;2.13;;;;;;;4.16;100.00;102643.41;5070697;28;20048;-49
2022/02/11 08:29:31;;;;;;;13.13;2.20;;;;;;;4.11;100.00;102645.22;5071827;28;20053;-47
2022/02/11 08:31:59;;;;;;;14.57;2.60;;;;;;;4.16;100.00;102646.88;5072185;28;20049;-46
2022/02/11 08:34:27;;;;;;;13.80;2.50;;;;;;;4.23;99.95;102664.19;5070857;28;20098;-48
2022/02/11 08:36:55;;;;;;;16.00;3.47;;;;;;;4.20;100.00;102664.22;5072193;28;20048;-48
2022/02/11 08:39:25;;;;;;;14.10;2.47;;;;;;;4.44;99.49;102670.06;5072234;28;20048;-51
2022/02/11 08:41:53;;;;;;;16.10;2.60;;;;;;;4.49;99.43;102673.47;5072174;28;20056;-44
2022/02/11 08:44:21;;;;;;;13.13;2.55;;;;;;;4.65;98.44;102668.97;5070745;28;20082;-45
2022/02/11 08:46:49;;;;;;;9.73;1.70;;;;;;;4.83;98.92;102693.97;5072369;28;20054;-48
2022/02/11 08:49:17;;;;;;;15.80;2.13;;;;;;;5.00;99.63;102690.28;5072646;28;20505;-47
2022/02/11 08:51:45;;;;;;;13.55;2.80;;;;;;;4.91;96.36;102702.56;5072126;28;20105;-47
2022/02/11 08:54:13;;;;;;;18.95;2.78;;;;;;;4.90;96.44;102706.03;5072088;28;20102;-49
2022/02/11 08:56:43;;;;;;;11.05;2.72;;;;;;;4.91;96.91;102715.59;5072091;28;20519;-46
2022/02/11 08:59:11;;;;;;;25.30;3.38;;;;;;;5.07;95.39;102716.28;5072073;28;20059;-45
2022/02/11 09:01:39;;;;;;;14.15;2.20;;;;;;;5.11;95.92;102719.69;5071909;28;20036;-45
2022/02/11 09:04:08;;;;;;;16.73;2.83;;;;;;;5.16;95.47;102722.28;5071660;28;20052;-43
2022/02/11 09:06:36;;;;;;;17.30;2.80;;;;;;;5.14;95.15;102724.91;5071794;28;20044;-46
2022/02/11 09:09:04;;;;;;;14.57;2.40;;;;;;;5.34;95.93;102739.44;5071957;28;20052;-49
2022/02/11 09:11:32;;;;;;;17.75;2.50;;;;;;;5.30;92.25;102729.91;5074506;28;20090;-45
2022/02/11 09:14:04;;;;;;;20.50;2.75;;;;;;;5.31;91.59;102742.09;5075744;28;20140;-47
2022/02/11 09:16:32;;;;;;;15.38;2.42;;;;;;;5.47;93.51;102746.22;5075713;28;20052;-47
2022/02/11 09:19:00;;;;;;;14.65;2.20;;;;;;;5.40;91.35;102757.63;5075751;28;20056;-47
2022/02/11 09:21:28;;;;;;;16.92;2.65;;;;;;;5.39;91.41;102750.69;5075622;28;20049;-43
2022/02/11 09:23:56;;;;;;;16.23;2.25;;;;;;;5.50;89.89;102758.38;5075541;28;20495;-45
2022/02/11 09:26:24;;;;;;;27.20;3.25;;;;;;;5.66;90.54;102769.44;5075471;28;20052;-55
2022/02/11 09:28:52;;;;;;;15.95;2.35;;;;;;;5.80;90.32;102767.50;5075578;28;20051;-51
2022/02/11 09:31:27;;;;;;;17.83;2.50;;;;;;;5.88;89.93;102775.25;5075433;28;20052;-54
2022/02/11 09:34:02;;;;;;;18.98;2.40;;;;;;;5.97;86.76;102771.63;5075268;28;20056;-52
2022/02/11 09:36:31;;;;;;;19.75;2.60;;;;;;;6.22;86.55;102774.78;5075516;28;20052;-55
2022/02/11 09:38:59;;;;;;;15.55;2.70;;;;;;;6.26;82.32;102784.28;5075365;28;20133;-54
2022/02/11 09:41:29;;;;;;;18.48;2.72;;;;;;;6.11;76.55;102787.13;5075158;28;20518;-52
2022/02/11 09:44:00;;;;;;;12.90;2.03;;;;;;;6.40;77.52;102790.13;5075209;28;20109;-53
2022/02/11 09:46:32;;;;;;;11.35;2.03;;;;;;;6.31;75.60;102789.44;5075427;28;20044;-44
2022/02/11 09:48:59;;;;;;;13.00;2.05;;;;;;;6.52;76.98;102796.06;5075173;28;20055;-54
2022/02/11 09:51:26;;;;;;;13.38;1.98;;;;;;;6.47;70.32;102814.41;5075036;28;20048;-55
2022/02/11 09:53:55;;;;;;;9.43;2.28;;;;;;;6.57;68.54;102816.00;5075011;28;20102;-53
2022/02/11 09:56:23;;;;;;;9.98;2.42;;;;;;;6.56;62.97;102826.50;5075105;28;20529;-55
2022/02/11 09:59:07;;;;;;;11.23;1.75;;;;;;;6.66;65.05;102830.66;5075153;28;20098;-55
2022/02/11 10:01:40;;;;;;;10.50;1.88;;;;;;;6.81;61.16;102836.53;5074878;28;20052;-55
2022/02/11 10:04:12;;;;;;;11.30;1.60;;;;;;;6.68;58.70;102838.47;5074833;28;20045;-54
2022/02/11 10:06:40;;;;;;;10.85;2.35;;;;;;;6.87;60.45;102839.91;5070823;28;20041;-55
2022/02/11 10:09:09;;;;;;;15.65;2.17;;;;;;;6.99;59.60;102844.03;5064723;28;20041;-55
2022/02/11 10:11:37;;;;;;;11.75;1.65;;;;;;;7.20;58.85;102850.63;5054577;28;20438;-55
2022/02/11 10:14:34;;;;;;;12.38;1.60;;;;;;;7.67;58.55;102852.34;5054637;28;20098;-54
2022/02/11 10:17:05;;;;;;;8.55;1.60;;;;;;;7.64;54.66;102855.03;5032047;28;20049;-56
2022/02/11 10:19:41;;;;;;;14.77;1.60;;;;;;;7.50;54.64;102863.16;5054366;28;20053;-54
2022/02/11 10:22:16;;;;;;;9.43;1.63;;;;;;;7.13;53.53;102884.78;5053900;28;20041;-48
2022/02/11 10:24:46;;;;;;;10.85;1.73;;;;;;;7.06;55.36;102887.53;5055260;28;20376;-54
2022/02/11 10:27:19;;;;;;;13.73;1.77;;;;;;;6.79;54.49;102891.50;5055433;28;20060;-54
2022/02/11 10:29:47;;;;;;;11.05;1.70;;;;;;;6.46;55.21;102892.88;5054353;28;20538;-56
2022/02/11 10:32:17;;;;;;;7.47;1.20;;;;;;;6.53;55.57;102903.22;5054940;28;20556;-53
2022/02/11 10:34:52;;;;;;;9.73;1.40;;;;;;;6.65;54.50;102907.38;5052269;28;20045;-54
2022/02/11 10:37:21;;;;;;;11.00;1.90;;;;;;;7.02;53.94;102913.75;5070203;28;20044;-54
2022/02/11 10:39:56;;;;;;;7.70;1.50;;;;;;;7.60;54.58;102924.94;5074098;28;20056;-55
2022/02/11 10:42:43;;;;;;;9.43;1.50;;;;;;;7.87;52.32;102926.13;5071849;28;20048;-55
2022/02/11 10:45:29;;;;;;;11.48;1.67;;;;;;;7.78;51.37;102923.69;5054250;28;20506;-56
2022/02/11 10:48:13;;;;;;;5.28;1.23;;;;;;;8.27;50.65;102925.25;5054110;28;20048;-56
2022/02/11 10:50:45;;;;;;;5.65;1.08;;;;;;;9.07;51.20;102919.06;5053914;28;20582;-55
2022/02/11 10:53:22;;;;;;;9.20;1.58;;;;;;;8.68;47.55;102924.38;5055829;28;20403;-53
2022/02/11 10:55:54;;;;;;;8.00;1.38;;;;;;;8.34;48.05;102935.63;5053956;28;20040;-55
2022/02/11 10:58:23;;;;;;;6.82;1.40;;;;;;;8.65;50.27;102932.34;5053853;28;20072;-55
2022/02/11 11:00:51;;;;;;;8.88;1.50;;;;;;;8.82;49.29;102938.03;5054051;28;20071;-54
2022/02/11 11:03:21;;;;;;;5.85;0.98;;;;;;;9.23;48.96;102925.63;5053619;28;20098;-54
2022/02/11 11:05:51;;;;;;;5.90;1.38;;;;;;;9.53;47.95;102932.72;5070388;28;20416;-54
2022/02/11 11:08:21;;;;;;;7.80;1.10;;;;;;;9.79;47.82;102934.63;5073789;28;20048;-55
2022/02/11 11:10:50;;;;;;;8.48;1.63;;;;;;;9.81;45.83;102938.06;5072683;28;20099;-56
2022/02/11 11:13:19;;;;;;;8.60;1.60;;;;;;;9.66;45.71;102936.72;5069183;28;20049;-54
2022/02/11 11:15:51;;;;;;;7.97;1.38;;;;;;;9.43;44.75;102945.25;5060645;28;20045;-54
2022/02/11 11:18:21;;;;;;;10.70;1.50;;;;;;;9.28;46.92;102946.50;5054017;28;20492;-54
2022/02/11 11:21:00;;;;;;;5.55;1.33;;;;;;;8.98;47.74;102935.03;5053494;28;20053;-55
2022/02/11 11:23:31;;;;;;;9.48;1.48;;;;;;;8.84;48.91;102945.88;5053351;28;20059;-54
2022/02/11 11:26:06;;;;;;;6.20;2.20;;;;;;;8.86;49.74;102965.06;5059943;28;20041;-55
2022/02/11 11:28:42;;;;;;;8.43;1.40;;;;;;;8.65;49.47;102966.44;5060014;28;20446;-56
2022/02/11 11:31:17;;;;;;;7.88;1.38;;;;;;;8.46;48.32;102969.47;5053332;28;20051;-55
2022/02/11 11:33:47;;;;;;;7.80;1.40;;;;;;;8.34;50.05;102974.97;5053813;28;20084;-56
2022/02/11 11:36:16;;;;;;;7.65;1.65;;;;;;;8.30;50.48;102976.78;5053572;28;20041;-57
2022/02/11 11:38:47;;;;;;;10.07;2.45;;;;;;;7.98;49.84;102980.09;5053081;28;20045;-55
2022/02/11 11:41:21;;;;;;;7.53;1.70;;;;;;;8.03;50.63;102989.56;5053047;28;20045;-56
2022/02/11 11:43:51;;;;;;;7.07;1.90;;;;;;;8.44;50.57;102977.34;5051863;28;20139;-56
2022/02/11 11:46:34;;;;;;;6.47;1.35;;;;;;;8.22;49.28;102978.69;5054414;28;20188;-56
2022/02/11 11:49:11;;;;;;;9.50;1.73;;;;;;;8.49;49.71;102989.53;5072948;28;20429;-56
2022/02/11 11:52:05;;;;;;;8.98;1.60;;;;;;;8.46;49.17;102982.59;5072813;28;20048;-56
2022/02/11 11:54:33;;;;;;;7.55;1.17;;;;;;;8.25;47.78;102990.00;5062631;28;20419;-56
2022/02/11 11:57:08;;;;;;;9.32;1.35;;;;;;;7.91;48.99;103005.53;5070424;28;20124;-57
2022/02/11 11:59:38;;;;;;;7.82;1.40;;;;;;;7.59;48.54;102994.78;5066841;28;20045;-56
2022/02/11 12:02:08;;;;;;;5.45;1.10;;;;;;;7.88;48.07;103005.56;5072911;28;20052;-56
2022/02/11 12:04:56;;;;;;;12.43;1.30;;;;;;;8.01;48.06;103000.97;5072652;28;20036;-58
2022/02/11 12:07:26;;;;;;;8.25;1.33;;;;;;;8.09;48.98;103005.16;5071825;28;20135;-57
2022/02/11 12:09:56;;;;;;;8.00;1.40;;;;;;;8.30;49.79;102997.75;5069077;28;20098;-56
2022/02/11 12:12:25;;;;;;;10.10;1.65;;;;;;;8.13;49.63;103000.72;5072514;28;20068;-57
2022/02/11 12:14:55;;;;;;;6.78;1.30;;;;;;;8.34;49.52;102998.56;5072903;28;20105;-55
2022/02/11 12:17:24;;;;;;;9.20;1.30;;;;;;;8.44;49.06;103003.56;5062127;28;20051;-57
2022/02/11 12:19:55;;;;;;;6.68;1.20;;;;;;;8.39;50.01;102999.31;5066499;28;20498;-53
2022/02/11 12:22:25;;;;;;;11.32;1.48;;;;;;;8.39;49.22;103012.44;5068680;28;20127;-55
2022/02/11 12:27:43;;;;;;;7.68;1.30;;;;;;;8.34;48.40;103032.63;5051065;28;20519;-56
2022/02/11 12:30:15;;;;;;;9.82;1.50;;;;;;;8.25;48.94;103026.69;5052050;28;20045;-53
2022/02/11 12:32:45;;;;;;;13.77;1.90;;;;;;;8.26;50.96;103028.44;5054791;28;20055;-55
2022/02/11 12:35:17;;;;;;;8.57;1.65;;;;;;;8.32;51.00;103037.91;5066803;28;20061;-55
2022/02/11 12:37:47;;;;;;;7.78;1.25;;;;;;;8.38;50.97;103042.16;5066408;28;20045;-56
2022/02/11 12:40:19;;;;;;;8.15;1.63;;;;;;;8.18;50.33;103042.56;5072312;28;20453;-55
2022/02/11 12:42:50;;;;;;;6.47;1.13;;;;;;;8.21;50.92;103039.91;5058140;28;20079;-55
2022/02/11 12:45:24;;;;;;;8.98;1.50;;;;;;;8.35;50.42;103048.34;5051223;28;20518;-57
2022/02/11 12:47:53;;;;;;;8.52;1.45;;;;;;;8.09;49.72;103054.97;5052253;28;20542;-55
2022/02/11 12:50:30;;;;;;;7.22;1.77;;;;;;;7.83;49.21;103044.97;5052211;28;20060;-54
2022/02/11 12:52:59;;;;;;;5.05;1.23;;;;;;;7.77;47.11;103060.78;5052310;28;20045;-56
2022/02/11 12:55:30;;;;;;;8.52;1.20;;;;;;;7.50;46.58;103042.06;5052145;28;20080;-56
2022/02/11 12:58:01;;;;;;;6.70;1.25;;;;;;;7.55;48.01;103050.72;5051872;28;20056;-56
2022/02/11 13:00:32;;;;;;;7.60;1.35;;;;;;;7.78;47.13;103055.56;5051986;28;20056;-55
2022/02/11 13:03:02;;;;;;;7.30;1.15;;;;;;;7.91;46.41;103052.72;5052213;28;20480;-56
2022/02/11 13:05:36;;;;;;;7.32;1.33;;;;;;;7.72;46.80;103050.41;5052106;28;20084;-55
2022/02/11 13:08:07;;;;;;;4.53;1.17;;;;;;;8.54;46.48;103051.47;5051961;28;20041;-57
2022/02/11 13:10:37;;;;;;;9.40;1.65;;;;;;;9.01;44.80;103053.06;5047479;28;20060;-57
2022/02/11 13:13:06;;;;;;;7.60;1.30;;;;;;;9.21;44.69;103053.44;5047533;28;20052;-56
2022/02/11 13:15:36;;;;;;;9.88;1.58;;;;;;;8.95;44.26;103056.69;5051962;28;20037;-57
2022/02/11 13:18:09;;;;;;;5.35;1.00;;;;;;;9.79;43.93;103063.41;5051740;28;20049;-56
2022/02/11 13:20:45;;;;;;;5.05;0.82;;;;;;;10.30;42.94;103057.56;5051758;28;20560;-56
2022/02/11 13:23:16;;;;;;;7.28;1.20;;;;;;;10.46;41.11;103067.72;5051821;28;20048;-57
2022/02/11 13:25:44;;;;;;;4.85;0.98;;;;;;;9.90;42.03;103065.75;5051771;28;20060;-58
2022/02/11 13:28:14;;;;;;;8.30;1.10;;;;;;;9.77;43.16;103075.69;5051566;28;20099;-57
2022/02/11 13:30:45;;;;;;;6.22;1.38;;;;;;;9.42;41.02;103078.34;5050563;28;20056;-57
2022/02/11 13:33:22;;;;;;;4.15;0.85;;;;;;;9.15;42.14;103077.25;5051652;28;20111;-57
2022/02/11 13:35:53;;;;;;;7.57;1.17;;;;;;;9.12;42.55;103088.66;5051059;28;20144;-45
2022/02/11 13:38:23;;;;;;;8.55;1.10;;;;;;;9.06;43.22;103080.91;5050981;28;20522;-48
2022/02/11 13:40:56;;;;;;;6.13;1.00;;;;;;;8.89;42.28;103097.06;5051287;28;20056;-48
2022/02/11 13:43:25;;;;;;;5.38;0.93;;;;;;;8.98;43.24;103088.09;5051515;28;20044;-48
2022/02/11 13:45:55;;;;;;;6.47;1.40;;;;;;;8.89;43.09;103097.06;5051444;28;20099;-47
2022/02/11 13:48:25;;;;;;;7.20;1.50;;;;;;;8.84;43.40;103091.06;5051332;28;20060;-46
2022/02/11 13:51:05;;;;;;;5.30;1.10;;;;;;;8.71;43.10;103094.84;5051542;28;20048;-44
2022/02/11 13:53:37;;;;;;;6.82;1.00;;;;;;;8.65;43.97;103102.84;5051531;28;20102;-47
2022/02/11 13:56:07;;;;;;;5.75;1.20;;;;;;;8.47;45.40;103094.47;5051543;28;20051;-46
2022/02/11 13:58:36;;;;;;;7.30;1.38;;;;;;;8.49;45.88;103105.75;5053992;28;20063;-46
2022/02/11 14:01:24;;;;;;;7.72;1.35;;;;;;;8.78;45.90;103105.16;5053623;28;20060;-47
2022/02/11 14:03:57;;;;;;;11.43;1.30;;;;;;;8.56;46.59;103114.38;5054806;28;20048;-50
2022/02/11 14:06:28;;;;;;;7.88;1.15;;;;;;;8.36;48.60;103118.25;5054902;28;20045;-48
2022/02/11 14:08:58;;;;;;;8.07;1.30;;;;;;;8.31;49.20;103125.31;5050139;28;20045;-44
2022/02/11 14:11:26;;;;;;;8.15;1.20;;;;;;;7.94;48.82;103120.78;5050553;28;20048;-48
2022/02/11 14:13:55;;;;;;;7.28;1.35;;;;;;;7.93;49.41;103119.03;5054636;28;20114;-46
2022/02/11 14:16:23;;;;;;;8.15;1.65;;;;;;;7.89;48.83;103122.59;5054446;28;20077;-45
2022/02/11 14:18:52;;;;;;;8.15;1.33;;;;;;;7.70;47.65;103129.91;5054509;28;20076;-49
2022/02/11 14:21:20;;;;;;;9.00;1.23;;;;;;;7.84;48.97;103132.28;5054562;28;20075;-47
2022/02/11 14:23:49;;;;;;;8.45;1.25;;;;;;;7.82;49.96;103131.47;5054263;28;20423;-44
2022/02/11 14:26:17;;;;;;;5.78;1.40;;;;;;;7.73;48.62;103132.47;5054344;28;20052;-45
2022/02/11 14:28:45;;;;;;;7.18;1.65;;;;;;;7.77;49.06;103136.75;5052446;28;20068;-46
2022/02/11 14:31:13;;;;;;;6.93;1.10;;;;;;;7.75;49.08;103135.94;5050192;28;20984;-55
2022/02/11 14:33:41;;;;;;;9.70;1.25;;;;;;;7.64;48.02;103150.97;5052919;28;20542;-56
2022/02/11 14:36:10;;;;;;;7.07;1.35;;;;;;;7.55;48.13;103145.00;5054473;28;20507;-55
2022/02/11 14:38:38;;;;;;;4.97;0.95;;;;;;;7.62;48.83;103150.97;5054271;28;20045;-54
2022/02/11 14:43:54;;;;;;;7.03;1.10;;;;;;;7.30;48.53;103165.44;5049994;28;20100;-54
2022/02/11 14:46:22;;;;;;;6.97;1.08;;;;;;;7.44;48.95;103163.50;5053531;28;20049;-56
2022/02/11 14:48:50;;;;;;;7.35;1.48;;;;;;;7.48;50.20;103166.91;5053994;28;20076;-55
2022/02/11 14:51:18;;;;;;;4.05;1.48;;;;;;;7.45;49.07;103175.66;5053961;28;20055;-55
2022/02/11 14:53:46;;;;;;;8.18;1.00;;;;;;;7.57;49.02;103168.53;5053822;28;20463;-54
2022/02/11 14:56:16;;;;;;;9.88;1.33;;;;;;;7.68;50.28;103171.00;5053736;28;20373;-55
2022/02/11 14:58:44;;;;;;;4.82;1.30;;;;;;;7.58;48.67;103178.09;5053819;28;20067;-56
2022/02/11 15:01:12;;;;;;;9.32;1.83;;;;;;;7.45;50.24;103178.28;5053879;28;20060;-55
2022/02/11 15:03:40;;;;;;;9.05;1.40;;;;;;;7.29;49.13;103182.00;5053135;28;20095;-45
2022/02/11 15:06:08;;;;;;;7.43;1.13;;;;;;;7.09;49.30;103177.94;5048569;28;20049;-54